createdAt,value
2022-09-02T00:02:20.063Z,9.90
2022-09-02T00:04:47.362Z,3.70
2022-09-02T00:07:14.366Z,6.47
2022-09-02T00:09:41.409Z,4.07
2022-09-02T00:12:09.965Z,6.65
2022-09-02T00:14:39.160Z,5.45
2022-09-02T00:17:06.830Z,5.85
2022-09-02T00:24:30.066Z,5.97
2022-09-02T00:26:57.301Z,6.13
2022-09-02T00:29:28.132Z,9.13
2022-09-02T00:31:55.909Z,4.53
2022-09-02T00:34:23.728Z,5.43
2022-09-02T00:36:50.819Z,7.10
2022-09-02T00:39:17.921Z,6.95
2022-09-02T00:41:45.216Z,7.00
2022-09-02T00:44:16.646Z,5.45
2022-09-02T00:46:44.271Z,4.55
2022-09-02T00:49:18.509Z,7.18
2022-09-02T00:52:11.226Z,7.63
2022-09-02T00:54:45.866Z,4.18
2022-09-02T00:57:19.790Z,6.75
2022-09-02T01:00:02.947Z,6.07
2022-09-02T01:02:32.013Z,4.13
2022-09-02T01:05:01.182Z,6.47
2022-09-02T01:07:32.088Z,8.30
2022-09-02T01:10:01.123Z,6.60
2022-09-02T01:12:31.325Z,4.30
2022-09-02T01:14:59.116Z,6.05
2022-09-02T01:22:28.305Z,6.60
2022-09-02T01:25:04.148Z,5.22
2022-09-02T01:27:34.472Z,5.55
2022-09-02T01:30:01.880Z,5.22
2022-09-02T01:32:31.047Z,5.80
2022-09-02T01:34:58.353Z,6.97
2022-09-02T01:37:25.864Z,5.38
2022-09-02T01:39:53.826Z,5.93
2022-09-02T01:42:21.714Z,7.32
2022-09-02T01:44:49.240Z,5.28
2022-09-02T01:47:23.500Z,7.22
2022-09-02T01:49:51.531Z,8.75
2022-09-02T01:52:20.247Z,11.93
2022-09-02T01:54:48.012Z,9.55
2022-09-02T01:57:15.112Z,7.22
2022-09-02T01:59:44.967Z,6.18
2022-09-02T02:02:13.302Z,5.35
2022-09-02T02:04:41.639Z,5.18
2022-09-02T02:07:08.736Z,7.38
2022-09-02T02:09:35.979Z,8.15
2022-09-02T02:12:04.337Z,6.95
2022-09-02T02:14:32.117Z,5.93
2022-09-02T02:19:29.119Z,6.15
2022-09-02T02:21:58.802Z,6.57
2022-09-02T02:24:25.835Z,8.80
2022-09-02T02:26:53.000Z,6.85
2022-09-02T02:29:20.859Z,5.47
2022-09-02T02:31:48.033Z,6.97
2022-09-02T02:34:15.608Z,9.52
2022-09-02T02:36:43.039Z,5.22
2022-09-02T02:39:12.616Z,6.32
2022-09-02T02:41:44.918Z,6.38
2022-09-02T02:44:13.789Z,5.78
2022-09-02T02:46:41.339Z,5.97
2022-09-02T02:49:08.719Z,5.28
2022-09-02T02:51:36.486Z,7.75
2022-09-02T02:56:31.469Z,4.57
2022-09-02T02:59:01.621Z,6.38
2022-09-02T03:01:29.314Z,6.70
2022-09-02T03:06:26.533Z,8.45
2022-09-02T03:08:54.212Z,6.43
2022-09-02T03:11:22.986Z,6.40
2022-09-02T03:13:51.592Z,7.20
2022-09-02T03:16:20.222Z,4.70
2022-09-02T03:18:50.425Z,5.43
2022-09-02T03:21:18.343Z,7.10
2022-09-02T03:23:46.278Z,7.30
2022-09-02T03:26:18.918Z,6.78
2022-09-02T03:28:47.758Z,5.65
2022-09-02T03:31:21.189Z,6.28
2022-09-02T03:33:48.578Z,5.50
2022-09-02T03:36:31.931Z,6.70
2022-09-02T03:39:04.877Z,7.28
2022-09-02T03:41:37.577Z,6.93
2022-09-02T03:44:05.797Z,6.50
2022-09-02T03:46:33.228Z,5.80
2022-09-02T03:49:00.174Z,5.97
2022-09-02T03:51:31.773Z,5.50
2022-09-02T03:53:59.305Z,6.10
2022-09-02T03:56:26.623Z,8.38
2022-09-02T03:58:54.492Z,6.18
2022-09-02T04:04:01.250Z,7.00
2022-09-02T04:06:32.738Z,8.65
2022-09-02T04:09:03.564Z,6.07
2022-09-02T04:11:31.321Z,7.22
2022-09-02T04:19:02.032Z,4.85
2022-09-02T04:21:30.166Z,9.13
2022-09-02T04:23:57.691Z,9.05
2022-09-02T04:26:25.141Z,6.22
2022-09-02T04:28:54.336Z,6.70
2022-09-02T04:31:25.882Z,6.53
2022-09-02T04:33:53.896Z,7.55
2022-09-02T04:36:21.746Z,9.52
2022-09-02T04:38:52.370Z,5.88
2022-09-02T04:41:23.294Z,8.25
2022-09-02T04:43:51.450Z,6.95
2022-09-02T04:46:19.355Z,4.70
2022-09-02T04:49:00.934Z,6.38
2022-09-02T04:51:28.241Z,6.28
2022-09-02T04:53:55.888Z,9.02
2022-09-02T04:58:52.994Z,5.55
2022-09-02T05:01:24.148Z,8.27
2022-09-02T05:03:52.188Z,5.68
2022-09-02T05:06:22.394Z,7.00
2022-09-02T05:08:50.062Z,6.60
2022-09-02T05:13:53.858Z,6.38
2022-09-02T05:16:26.291Z,7.57
2022-09-02T05:18:54.905Z,5.25
2022-09-02T05:21:23.570Z,6.47
2022-09-02T05:23:51.574Z,6.63
2022-09-02T05:26:22.616Z,8.85
2022-09-02T05:28:50.760Z,11.43
2022-09-02T05:31:20.253Z,19.85
2022-09-02T05:33:47.532Z,13.95
2022-09-02T05:36:20.679Z,15.73
2022-09-02T05:38:48.853Z,28.45
2022-09-02T05:41:23.550Z,10.15
2022-09-02T05:43:56.814Z,12.18
2022-09-02T05:46:27.279Z,7.60
2022-09-02T05:49:07.875Z,8.93
2022-09-02T05:51:42.267Z,7.57
2022-09-02T05:54:13.416Z,8.95
2022-09-02T05:56:45.184Z,8.95
2022-09-02T05:59:12.809Z,6.68
2022-09-02T06:04:07.605Z,8.20
2022-09-02T06:06:38.988Z,8.57
2022-09-02T06:09:14.834Z,6.25
2022-09-02T06:11:49.672Z,8.98
2022-09-02T06:14:19.659Z,5.50
2022-09-02T06:16:47.191Z,7.72
2022-09-02T06:21:47.445Z,6.38
2022-09-02T06:24:14.807Z,8.43
2022-09-02T06:26:42.591Z,7.10
2022-09-02T06:29:10.748Z,6.50
2022-09-02T06:31:40.441Z,5.88
2022-09-02T06:34:07.776Z,4.38
2022-09-02T06:36:34.815Z,6.55
2022-09-02T06:39:02.395Z,8.20
2022-09-02T06:41:32.584Z,5.93
2022-09-02T06:44:06.971Z,6.47
2022-09-02T06:46:37.767Z,6.18
2022-09-02T06:49:07.634Z,5.85
2022-09-02T06:51:40.752Z,6.55
2022-09-02T06:54:11.282Z,4.68
2022-09-02T06:56:45.998Z,6.68
2022-09-02T06:59:17.312Z,5.45
2022-09-02T07:01:44.920Z,5.70
2022-09-02T07:04:30.904Z,6.30
2022-09-02T07:06:59.753Z,5.97
2022-09-02T07:09:33.927Z,4.93
2022-09-02T07:12:04.951Z,4.50
2022-09-02T07:14:38.003Z,3.45
2022-09-02T07:17:05.575Z,9.57
2022-09-02T07:19:32.745Z,5.15
2022-09-02T07:21:59.892Z,5.32
2022-09-02T07:24:26.840Z,7.38
2022-09-02T07:26:55.470Z,5.82
2022-09-02T07:29:23.708Z,4.28
2022-09-02T07:31:50.717Z,5.68
2022-09-02T07:34:19.266Z,5.82
2022-09-02T07:36:46.826Z,5.25
2022-09-02T07:41:43.160Z,5.95
2022-09-02T07:44:11.103Z,11.10
2022-09-02T07:46:39.342Z,5.05
2022-09-02T07:49:09.763Z,4.45
2022-09-02T07:51:40.181Z,5.38
2022-09-02T07:54:09.084Z,4.55
2022-09-02T07:56:36.609Z,4.75
2022-09-02T08:01:31.602Z,4.88
2022-09-02T08:06:34.697Z,4.28
2022-09-02T08:09:11.507Z,4.20
2022-09-02T08:11:41.886Z,3.88
2022-09-02T08:14:12.076Z,4.40
2022-09-02T08:16:41.314Z,4.57
2022-09-02T08:19:09.164Z,5.80
2022-09-02T08:21:36.830Z,4.15
2022-09-02T08:24:04.338Z,2.67
2022-09-02T08:28:58.769Z,3.20
2022-09-02T08:31:26.443Z,5.57
2022-09-02T08:33:53.515Z,4.82
2022-09-02T08:36:21.522Z,6.00
2022-09-02T08:38:49.005Z,6.70
2022-09-02T08:41:28.250Z,3.75
2022-09-02T08:43:58.968Z,5.00
2022-09-02T08:46:29.356Z,5.80
2022-09-02T08:48:59.741Z,5.60
2022-09-02T08:51:37.759Z,6.07
2022-09-02T08:54:06.908Z,5.78
2022-09-02T08:56:34.798Z,4.00
2022-09-02T08:59:03.270Z,5.25
2022-09-02T09:01:56.416Z,4.97
2022-09-02T09:04:53.858Z,11.02
2022-09-02T09:10:05.949Z,6.97
2022-09-02T09:13:10.296Z,8.43
2022-09-02T09:15:55.049Z,4.57
2022-09-02T09:18:35.304Z,6.90
2022-09-02T09:21:02.283Z,4.28
2022-09-02T09:23:34.849Z,6.60
2022-09-02T09:26:28.060Z,6.38
2022-09-02T09:28:59.469Z,7.35
2022-09-02T09:31:32.863Z,4.88
2022-09-02T09:34:06.677Z,7.60
2022-09-02T09:36:39.892Z,4.72
2022-09-02T09:39:25.753Z,5.32
2022-09-02T09:41:58.104Z,5.35
2022-09-02T09:44:45.179Z,3.88
2022-09-02T09:47:25.802Z,4.78
2022-09-02T09:50:08.624Z,4.03
2022-09-02T09:52:35.920Z,3.60
2022-09-02T09:55:24.427Z,4.03
2022-09-02T09:57:54.213Z,4.55
2022-09-02T10:00:28.097Z,6.13
2022-09-02T10:02:59.004Z,6.47
2022-09-02T10:05:26.191Z,5.60
2022-09-02T10:08:15.348Z,5.15
2022-09-02T10:11:04.095Z,5.85
2022-09-02T10:13:33.400Z,7.03
2022-09-02T10:16:16.442Z,5.07
2022-09-02T10:18:46.354Z,4.85
2022-09-02T10:21:16.819Z,5.57
2022-09-02T10:26:40.493Z,5.18
2022-09-02T10:29:28.605Z,5.90
2022-09-02T10:32:03.245Z,5.70
2022-09-02T10:34:50.824Z,5.72
2022-09-02T10:37:24.861Z,5.35
2022-09-02T10:39:58.100Z,6.85
2022-09-02T10:42:26.799Z,6.72
2022-09-02T10:45:32.697Z,5.18
2022-09-02T10:48:18.426Z,7.22
2022-09-02T10:51:17.068Z,4.95
2022-09-02T10:53:53.015Z,5.43
2022-09-02T10:56:23.782Z,6.85
2022-09-02T10:59:08.051Z,3.60
2022-09-02T11:02:12.184Z,7.13
2022-09-02T11:05:04.100Z,5.88
2022-09-02T11:07:42.848Z,7.25
2022-09-02T11:10:34.243Z,3.38
2022-09-02T11:13:15.403Z,5.13
2022-09-02T11:16:30.826Z,4.10
2022-09-02T11:19:45.894Z,2.33
2022-09-02T11:22:30.525Z,3.15
2022-09-02T11:25:28.486Z,5.50
2022-09-02T11:28:07.188Z,2.08
2022-09-02T11:31:00.436Z,2.20
2022-09-02T11:33:36.141Z,2.22
2022-09-02T11:36:04.734Z,2.78
2022-09-02T11:38:46.188Z,3.97
2022-09-02T11:53:15.101Z,2.65
2022-09-02T11:56:08.466Z,3.35
2022-09-02T12:02:49.872Z,1.50
2022-09-02T12:05:50.132Z,2.15
2022-09-02T12:12:41.796Z,2.33
2022-09-02T12:15:51.189Z,1.45
2022-09-02T12:26:19.535Z,2.13
2022-09-02T12:32:10.232Z,4.40
2022-09-02T12:34:37.356Z,1.60
2022-09-02T12:37:04.375Z,3.45
2022-09-02T12:39:35.706Z,2.53
2022-09-02T12:42:12.272Z,1.05
2022-09-02T12:45:04.717Z,1.70
2022-09-02T12:48:09.872Z,1.92
2022-09-02T12:50:57.997Z,1.13
2022-09-02T12:53:25.064Z,0.90
2022-09-02T12:56:09.010Z,1.75
2022-09-02T12:58:47.984Z,2.15
2022-09-02T13:01:48.425Z,1.70
2022-09-02T13:04:29.547Z,4.10
2022-09-02T13:07:14.556Z,1.02
2022-09-02T13:10:03.342Z,2.25
2022-09-02T13:12:55.493Z,1.17
2022-09-02T13:15:46.919Z,1.05
2022-09-02T13:18:47.666Z,1.38
2022-09-02T13:21:18.071Z,1.70
2022-09-02T13:23:45.209Z,2.08
2022-09-02T13:26:45.583Z,1.00
2022-09-02T13:29:25.235Z,2.88
2022-09-02T13:32:01.391Z,2.10
2022-09-02T13:34:30.722Z,2.30
2022-09-02T13:37:00.935Z,3.75
2022-09-02T13:39:34.647Z,1.38
2022-09-02T13:42:15.901Z,1.50
2022-09-02T13:44:46.197Z,3.08
2022-09-02T13:47:16.593Z,2.25
2022-09-02T13:49:48.532Z,6.80
2022-09-02T13:53:01.060Z,5.75
2022-09-02T13:55:14.662Z,2.60
2022-09-02T13:57:57.171Z,2.60
2022-09-02T14:00:33.343Z,2.28
2022-09-02T14:03:11.009Z,3.10
2022-09-02T14:05:46.878Z,4.82
2022-09-02T14:08:20.505Z,5.65
2022-09-02T14:10:56.388Z,4.50
2022-09-02T14:13:27.047Z,4.57
2022-09-02T14:16:26.682Z,3.85
2022-09-02T14:19:08.993Z,4.60
2022-09-02T14:21:41.553Z,6.22
2022-09-02T14:24:14.086Z,4.78
2022-09-02T14:26:47.956Z,6.35
2022-09-02T14:29:18.844Z,14.68
2022-09-02T14:31:46.931Z,22.02
2022-09-02T14:34:37.196Z,26.15
2022-09-02T14:37:25.732Z,12.98
2022-09-02T14:40:13.757Z,11.30
2022-09-02T14:42:57.253Z,10.90
2022-09-02T14:45:30.813Z,7.57
2022-09-02T14:48:00.737Z,7.82
2022-09-02T14:50:33.198Z,7.05
2022-09-02T14:53:11.025Z,4.93
2022-09-02T14:55:57.434Z,6.40
2022-09-02T14:58:27.346Z,5.35
2022-09-02T15:01:00.711Z,5.88
2022-09-02T15:03:30.728Z,8.90
2022-09-02T15:05:58.291Z,8.80
2022-09-02T15:10:54.969Z,6.43
2022-09-02T15:13:29.113Z,3.70
2022-09-02T15:15:57.590Z,4.88
2022-09-02T15:18:24.947Z,3.65
2022-09-02T15:20:53.039Z,4.95
2022-09-02T15:23:20.577Z,5.68
2022-09-02T15:25:47.989Z,5.28
2022-09-02T15:28:15.438Z,5.40
2022-09-02T15:30:42.473Z,3.92
2022-09-02T15:33:17.097Z,3.83
2022-09-02T15:35:45.218Z,4.85
2022-09-02T15:38:12.365Z,5.35
2022-09-02T15:40:39.705Z,4.75
2022-09-02T15:43:07.054Z,2.85
2022-09-02T15:48:21.882Z,5.05
2022-09-02T15:53:47.704Z,3.65
2022-09-02T15:59:23.052Z,3.80
2022-09-02T16:02:02.923Z,3.17
2022-09-02T16:08:22.991Z,5.90
2022-09-02T16:10:57.771Z,2.90
2022-09-02T16:13:33.170Z,3.40
2022-09-02T16:16:21.707Z,5.15
2022-09-02T16:18:54.910Z,4.88
2022-09-02T16:21:35.528Z,3.88
2022-09-02T16:24:10.276Z,3.00
2022-09-02T16:26:41.800Z,4.93
2022-09-02T16:29:16.650Z,3.17
2022-09-02T16:32:07.814Z,4.00
2022-09-02T16:34:42.193Z,2.33
2022-09-02T16:37:09.389Z,4.30
2022-09-02T16:39:37.551Z,3.97
2022-09-02T16:42:07.528Z,6.15
2022-09-02T16:44:38.650Z,9.25
2022-09-02T16:47:12.945Z,9.18
2022-09-02T16:49:49.386Z,10.18
2022-09-02T16:52:21.249Z,4.43
2022-09-02T16:54:59.781Z,5.60
2022-09-02T16:58:04.258Z,4.25
2022-09-02T17:00:36.208Z,5.68
2022-09-02T17:03:04.096Z,2.88
2022-09-02T17:05:31.053Z,3.65
2022-09-02T17:08:02.044Z,4.00
2022-09-02T17:10:31.221Z,4.45
2022-09-02T17:12:59.332Z,3.72
2022-09-02T17:15:26.723Z,3.17
2022-09-02T17:17:54.814Z,2.63
2022-09-02T17:20:23.356Z,3.15
2022-09-02T17:22:50.556Z,4.80
2022-09-02T17:25:18.560Z,4.53
2022-09-02T17:27:49.686Z,3.30
2022-09-02T17:30:17.202Z,3.15
2022-09-02T17:32:56.725Z,5.72
2022-09-02T17:35:39.588Z,3.13
2022-09-02T17:42:25.560Z,2.65
2022-09-02T17:44:55.580Z,3.35
2022-09-02T17:47:25.912Z,6.10
2022-09-02T17:53:09.457Z,2.38
2022-09-02T17:55:48.523Z,3.22
2022-09-02T17:59:02.073Z,3.38
2022-09-02T18:01:41.446Z,3.72
2022-09-02T18:04:38.700Z,3.42
2022-09-02T18:11:11.860Z,1.98
2022-09-02T18:14:01.162Z,3.75
2022-09-02T18:16:37.092Z,5.32
2022-09-02T18:19:50.094Z,4.40
2022-09-02T18:22:40.319Z,4.07
2022-09-02T18:25:38.743Z,3.30
2022-09-02T18:28:11.221Z,3.20
2022-09-02T18:30:51.887Z,3.30
2022-09-02T18:33:31.533Z,3.92
2022-09-02T18:35:58.797Z,3.92
2022-09-02T18:38:45.510Z,4.90
2022-09-02T18:41:39.182Z,3.05
2022-09-02T18:44:15.782Z,1.85
2022-09-02T18:46:52.784Z,3.20
2022-09-02T18:49:26.749Z,2.75
2022-09-02T18:51:59.563Z,3.38
2022-09-02T18:54:43.977Z,2.20
2022-09-02T18:57:15.166Z,3.17
2022-09-02T18:59:53.878Z,3.88
2022-09-02T19:02:21.574Z,3.85
2022-09-02T19:04:49.724Z,3.70
2022-09-02T19:07:38.208Z,3.63
2022-09-02T19:10:11.568Z,2.55
2022-09-02T19:12:39.630Z,3.03
2022-09-02T19:15:13.064Z,2.85
2022-09-02T19:17:42.006Z,2.75
2022-09-02T19:20:11.875Z,4.63
2022-09-02T19:22:45.364Z,3.45
2022-09-02T19:25:23.374Z,2.70
2022-09-02T19:27:53.254Z,3.70
2022-09-02T19:30:23.587Z,4.80
2022-09-02T19:32:54.643Z,5.07
2022-09-02T19:35:25.228Z,3.35
2022-09-02T19:37:57.245Z,2.40
2022-09-02T19:40:37.090Z,3.33
2022-09-02T19:43:07.892Z,3.88
2022-09-02T19:45:41.874Z,2.53
2022-09-02T19:48:13.545Z,3.55
2022-09-02T19:50:47.334Z,3.08
2022-09-02T19:53:33.645Z,2.60
2022-09-02T19:56:02.402Z,4.47
2022-09-02T19:58:33.621Z,4.53
2022-09-02T20:01:04.771Z,5.82
2022-09-02T20:03:34.277Z,4.00
2022-09-02T20:06:01.711Z,3.67
2022-09-02T20:08:31.554Z,4.35
2022-09-02T20:11:02.704Z,4.57
2022-09-02T20:13:40.145Z,5.22
2022-09-02T20:16:22.846Z,5.45
2022-09-02T20:18:53.730Z,4.75
2022-09-02T20:21:27.839Z,3.72
2022-09-02T20:24:06.421Z,4.82
2022-09-02T20:27:14.590Z,6.38
2022-09-02T20:30:18.546Z,8.05
2022-09-02T20:32:59.147Z,6.63
2022-09-02T20:35:45.453Z,6.72
2022-09-02T20:38:56.925Z,7.38
2022-09-02T20:45:28.516Z,6.90
2022-09-02T20:48:05.716Z,4.53
2022-09-02T20:50:50.361Z,6.05
2022-09-02T20:53:22.862Z,7.05
2022-09-02T20:56:30.150Z,4.63
2022-09-02T20:59:33.582Z,5.57
2022-09-02T21:02:03.032Z,6.03
2022-09-02T21:04:44.987Z,5.22
2022-09-02T21:07:22.426Z,5.63
2022-09-02T21:12:21.229Z,6.32
2022-09-02T21:14:55.418Z,3.80
2022-09-02T21:17:48.420Z,4.32
2022-09-02T21:20:46.158Z,3.92
2022-09-02T21:23:27.795Z,7.10
2022-09-02T21:26:05.647Z,5.00
2022-09-02T21:28:34.419Z,5.40
2022-09-02T21:31:14.661Z,6.25
2022-09-02T21:33:44.408Z,5.40
2022-09-02T21:36:16.280Z,3.83
2022-09-02T21:38:46.239Z,4.22
2022-09-02T21:41:34.058Z,4.93
2022-09-02T21:44:20.146Z,4.38
2022-09-02T21:47:02.052Z,4.57
2022-09-02T21:49:45.273Z,6.65
2022-09-02T21:52:32.167Z,4.90
2022-09-02T21:55:20.042Z,4.55
2022-09-02T21:58:21.952Z,6.28
2022-09-02T22:01:00.624Z,5.70
2022-09-02T22:03:40.471Z,6.75
2022-09-02T22:06:34.318Z,4.22
2022-09-02T22:09:26.488Z,4.40
2022-09-02T22:11:58.621Z,8.30
2022-09-02T22:15:04.075Z,5.38
2022-09-02T22:17:52.031Z,4.25
2022-09-02T22:20:29.969Z,6.82
2022-09-02T22:23:16.371Z,5.53
2022-09-02T22:25:44.080Z,7.68
2022-09-02T22:28:30.705Z,6.68
2022-09-02T22:31:01.549Z,9.30
2022-09-02T22:33:38.038Z,5.60
2022-09-02T22:36:26.975Z,4.60
2022-09-02T22:38:56.471Z,4.35
2022-09-02T22:41:36.133Z,5.03
2022-09-02T22:44:18.434Z,4.95
2022-09-02T22:47:14.927Z,4.68
2022-09-02T22:50:09.741Z,4.72
2022-09-02T22:52:55.031Z,4.57
2022-09-02T22:55:50.710Z,3.55
2022-09-02T22:58:24.033Z,5.43
2022-09-02T23:01:03.871Z,3.20
2022-09-02T23:04:01.095Z,5.60
2022-09-02T23:09:08.609Z,4.70
2022-09-02T23:12:03.268Z,4.15
2022-09-02T23:15:04.724Z,5.47
2022-09-02T23:17:58.795Z,3.30
2022-09-02T23:20:42.467Z,6.05
2022-09-02T23:23:31.871Z,4.88
2022-09-02T23:26:14.260Z,3.38
2022-09-02T23:28:59.803Z,5.40
2022-09-02T23:31:32.922Z,3.20
2022-09-02T23:34:32.082Z,3.78
2022-09-02T23:37:44.097Z,1.75
2022-09-02T23:40:38.765Z,1.70
2022-09-02T23:43:05.921Z,1.20
2022-09-02T23:45:35.232Z,1.08
2022-09-02T23:48:18.147Z,1.02
2022-09-02T23:51:24.171Z,0.38
2022-09-02T23:54:17.536Z,0.43
2022-09-02T23:57:02.240Z,2.53
2022-09-02T23:59:53.969Z,0.10
